sensor_id;sensor_type;location;lat;lon;timestamp;temperature;humidity
10468;DHT22;5281;48.878;9.394;2023-04-07T00:01:45;10.10;99.90
10468;DHT22;5281;48.878;9.394;2023-04-07T00:04:12;10.10;99.90
10468;DHT22;5281;48.878;9.394;2023-04-07T00:06:39;10.10;99.90
10468;DHT22;5281;48.878;9.394;2023-04-07T00:09:08;10.10;99.90
10468;DHT22;5281;48.878;9.394;2023-04-07T00:11:36;10.00;99.90
10468;DHT22;5281;48.878;9.394;2023-04-07T00:14:03;9.90;99.90
10468;DHT22;5281;48.878;9.394;2023-04-07T00:16:30;9.70;99.90
10468;DHT22;5281;48.878;9.394;2023-04-07T00:18:57;9.60;99.90
10468;DHT22;5281;48.878;9.394;2023-04-07T00:21:24;9.40;99.90
10468;DHT22;5281;48.878;9.394;2023-04-07T00:23:51;9.30;99.90
10468;DHT22;5281;48.878;9.394;2023-04-07T00:26:18;9.20;99.90
10468;DHT22;5281;48.878;9.394;2023-04-07T00:28:46;9.10;99.90
10468;DHT22;5281;48.878;9.394;2023-04-07T00:31:13;9.10;99.90
10468;DHT22;5281;48.878;9.394;2023-04-07T00:33:40;9.10;99.90
10468;DHT22;5281;48.878;9.394;2023-04-07T00:36:07;8.90;99.90
10468;DHT22;5281;48.878;9.394;2023-04-07T00:38:34;8.70;99.90
10468;DHT22;5281;48.878;9.394;2023-04-07T00:41:01;8.50;99.90
10468;DHT22;5281;48.878;9.394;2023-04-07T00:43:28;8.30;99.90
10468;DHT22;5281;48.878;9.394;2023-04-07T00:45:56;8.20;99.90
10468;DHT22;5281;48.878;9.394;2023-04-07T00:48:23;8.20;99.90
10468;DHT22;5281;48.878;9.394;2023-04-07T00:50:50;8.20;99.90
10468;DHT22;5281;48.878;9.394;2023-04-07T00:53:17;8.20;99.90
10468;DHT22;5281;48.878;9.394;2023-04-07T00:55:43;8.20;99.90
10468;DHT22;5281;48.878;9.394;2023-04-07T00:58:10;8.30;99.90
10468;DHT22;5281;48.878;9.394;2023-04-07T01:00:41;8.40;99.90
10468;DHT22;5281;48.878;9.394;2023-04-07T01:03:18;8.40;99.90
10468;DHT22;5281;48.878;9.394;2023-04-07T01:05:50;8.40;99.90
10468;DHT22;5281;48.878;9.394;2023-04-07T01:08:23;8.30;99.90
10468;DHT22;5281;48.878;9.394;2023-04-07T01:10:51;8.40;99.90
10468;DHT22;5281;48.878;9.394;2023-04-07T01:13:22;8.30;99.90
10468;DHT22;5281;48.878;9.394;2023-04-07T01:15:51;8.30;99.90
10468;DHT22;5281;48.878;9.394;2023-04-07T01:18:26;8.30;99.90
10468;DHT22;5281;48.878;9.394;2023-04-07T01:21:01;8.30;99.90
10468;DHT22;5281;48.878;9.394;2023-04-07T01:23:39;8.20;99.90
10468;DHT22;5281;48.878;9.394;2023-04-07T01:26:19;8.20;99.90
10468;DHT22;5281;48.878;9.394;2023-04-07T01:31:59;8.10;99.90
10468;DHT22;5281;48.878;9.394;2023-04-07T01:34:28;8.00;99.90
10468;DHT22;5281;48.878;9.394;2023-04-07T01:36:56;8.10;99.90
10468;DHT22;5281;48.878;9.394;2023-04-07T01:39:25;8.10;99.90
10468;DHT22;5281;48.878;9.394;2023-04-07T01:41:53;8.00;99.90
10468;DHT22;5281;48.878;9.394;2023-04-07T01:44:20;8.00;99.90
10468;DHT22;5281;48.878;9.394;2023-04-07T01:46:48;7.90;99.90
10468;DHT22;5281;48.878;9.394;2023-04-07T01:49:18;7.80;99.90
10468;DHT22;5281;48.878;9.394;2023-04-07T01:51:45;7.90;99.90
10468;DHT22;5281;48.878;9.394;2023-04-07T01:54:14;7.80;99.90
10468;DHT22;5281;48.878;9.394;2023-04-07T01:56:42;7.80;99.90
10468;DHT22;5281;48.878;9.394;2023-04-07T01:59:08;7.80;99.90
10468;DHT22;5281;48.878;9.394;2023-04-07T02:01:35;7.80;99.90
10468;DHT22;5281;48.878;9.394;2023-04-07T02:04:06;7.90;99.90
10468;DHT22;5281;48.878;9.394;2023-04-07T02:06:50;7.90;99.90
10468;DHT22;5281;48.878;9.394;2023-04-07T02:09:19;7.90;99.90
10468;DHT22;5281;48.878;9.394;2023-04-07T02:11:48;7.90;99.90
10468;DHT22;5281;48.878;9.394;2023-04-07T02:14:16;7.90;99.90
10468;DHT22;5281;48.878;9.394;2023-04-07T02:16:45;7.90;99.90
10468;DHT22;5281;48.878;9.394;2023-04-07T02:19:12;8.00;99.90
10468;DHT22;5281;48.878;9.394;2023-04-07T02:21:41;8.00;99.90
10468;DHT22;5281;48.878;9.394;2023-04-07T02:24:11;7.90;99.90
10468;DHT22;5281;48.878;9.394;2023-04-07T02:26:37;8.00;99.90
10468;DHT22;5281;48.878;9.394;2023-04-07T02:29:05;8.10;99.90
10468;DHT22;5281;48.878;9.394;2023-04-07T02:31:32;8.20;99.90
10468;DHT22;5281;48.878;9.394;2023-04-07T02:33:58;8.20;99.90
10468;DHT22;5281;48.878;9.394;2023-04-07T02:36:25;8.30;99.90
10468;DHT22;5281;48.878;9.394;2023-04-07T02:38:53;8.20;99.90
10468;DHT22;5281;48.878;9.394;2023-04-07T02:41:20;8.20;99.90
10468;DHT22;5281;48.878;9.394;2023-04-07T02:43:47;8.20;99.90
10468;DHT22;5281;48.878;9.394;2023-04-07T02:46:14;7.90;99.90
10468;DHT22;5281;48.878;9.394;2023-04-07T02:48:40;7.70;99.90
10468;DHT22;5281;48.878;9.394;2023-04-07T02:51:07;7.70;99.90
10468;DHT22;5281;48.878;9.394;2023-04-07T02:53:34;7.60;99.90
10468;DHT22;5281;48.878;9.394;2023-04-07T02:56:02;7.60;99.90
10468;DHT22;5281;48.878;9.394;2023-04-07T02:58:30;7.70;99.90
10468;DHT22;5281;48.878;9.394;2023-04-07T03:00:57;7.70;99.90
10468;DHT22;5281;48.878;9.394;2023-04-07T03:03:23;7.80;99.90
10468;DHT22;5281;48.878;9.394;2023-04-07T03:05:50;7.90;99.90
10468;DHT22;5281;48.878;9.394;2023-04-07T03:08:17;7.80;99.90
10468;DHT22;5281;48.878;9.394;2023-04-07T03:10:43;7.80;99.90
10468;DHT22;5281;48.878;9.394;2023-04-07T03:13:12;7.70;99.90
10468;DHT22;5281;48.878;9.394;2023-04-07T03:15:41;7.70;99.90
10468;DHT22;5281;48.878;9.394;2023-04-07T03:18:07;7.70;99.90
10468;DHT22;5281;48.878;9.394;2023-04-07T03:20:35;7.70;99.90
10468;DHT22;5281;48.878;9.394;2023-04-07T03:23:02;7.60;99.90
10468;DHT22;5281;48.878;9.394;2023-04-07T03:25:29;7.50;99.90
10468;DHT22;5281;48.878;9.394;2023-04-07T03:27:57;7.40;99.90
10468;DHT22;5281;48.878;9.394;2023-04-07T03:30:25;7.40;99.90
10468;DHT22;5281;48.878;9.394;2023-04-07T03:32:52;7.40;99.90
10468;DHT22;5281;48.878;9.394;2023-04-07T03:35:18;7.40;99.90
10468;DHT22;5281;48.878;9.394;2023-04-07T03:37:45;7.50;99.90
10468;DHT22;5281;48.878;9.394;2023-04-07T03:40:12;7.50;99.90
10468;DHT22;5281;48.878;9.394;2023-04-07T03:42:39;7.50;99.90
10468;DHT22;5281;48.878;9.394;2023-04-07T03:45:07;7.50;99.90
10468;DHT22;5281;48.878;9.394;2023-04-07T03:47:35;7.50;99.90
10468;DHT22;5281;48.878;9.394;2023-04-07T03:50:02;7.40;99.90
10468;DHT22;5281;48.878;9.394;2023-04-07T03:52:28;7.50;99.90
10468;DHT22;5281;48.878;9.394;2023-04-07T03:54:56;7.50;99.90
10468;DHT22;5281;48.878;9.394;2023-04-07T03:57:22;7.60;99.90
10468;DHT22;5281;48.878;9.394;2023-04-07T03:59:49;7.70;99.90
10468;DHT22;5281;48.878;9.394;2023-04-07T04:02:16;7.70;99.90
10468;DHT22;5281;48.878;9.394;2023-04-07T04:04:44;7.80;99.90
10468;DHT22;5281;48.878;9.394;2023-04-07T04:07:11;7.80;99.90
10468;DHT22;5281;48.878;9.394;2023-04-07T04:09:38;7.70;99.90
10468;DHT22;5281;48.878;9.394;2023-04-07T04:12:05;7.70;99.90
10468;DHT22;5281;48.878;9.394;2023-04-07T04:14:31;7.60;99.90
10468;DHT22;5281;48.878;9.394;2023-04-07T04:16:58;7.50;99.90
10468;DHT22;5281;48.878;9.394;2023-04-07T04:19:25;7.40;99.90
10468;DHT22;5281;48.878;9.394;2023-04-07T04:21:53;7.40;99.90
10468;DHT22;5281;48.878;9.394;2023-04-07T04:24:20;7.40;99.90
10468;DHT22;5281;48.878;9.394;2023-04-07T04:26:46;7.40;99.90
10468;DHT22;5281;48.878;9.394;2023-04-07T04:29:13;7.40;99.90
10468;DHT22;5281;48.878;9.394;2023-04-07T04:31:40;7.60;99.90
10468;DHT22;5281;48.878;9.394;2023-04-07T04:34:07;7.50;99.90
10468;DHT22;5281;48.878;9.394;2023-04-07T04:36:34;7.60;99.90
10468;DHT22;5281;48.878;9.394;2023-04-07T04:39:02;7.60;99.90
10468;DHT22;5281;48.878;9.394;2023-04-07T04:41:29;7.60;99.90
10468;DHT22;5281;48.878;9.394;2023-04-07T04:43:55;7.60;99.90
10468;DHT22;5281;48.878;9.394;2023-04-07T04:46:23;7.60;99.90
10468;DHT22;5281;48.878;9.394;2023-04-07T04:48:50;7.70;99.90
10468;DHT22;5281;48.878;9.394;2023-04-07T04:51:17;7.60;99.90
10468;DHT22;5281;48.878;9.394;2023-04-07T04:53:43;7.50;99.90
10468;DHT22;5281;48.878;9.394;2023-04-07T04:56:12;7.50;99.90
10468;DHT22;5281;48.878;9.394;2023-04-07T04:58:39;7.40;99.90
10468;DHT22;5281;48.878;9.394;2023-04-07T05:01:06;7.40;99.90
10468;DHT22;5281;48.878;9.394;2023-04-07T05:03:33;7.40;99.90
10468;DHT22;5281;48.878;9.394;2023-04-07T05:06:00;7.40;99.90
10468;DHT22;5281;48.878;9.394;2023-04-07T05:08:26;7.40;99.90
10468;DHT22;5281;48.878;9.394;2023-04-07T05:10:53;7.40;99.90
10468;DHT22;5281;48.878;9.394;2023-04-07T05:13:22;7.30;99.90
10468;DHT22;5281;48.878;9.394;2023-04-07T05:15:50;7.50;99.90
10468;DHT22;5281;48.878;9.394;2023-04-07T05:18:16;7.60;99.90
10468;DHT22;5281;48.878;9.394;2023-04-07T05:20:43;7.60;99.90
10468;DHT22;5281;48.878;9.394;2023-04-07T05:23:10;7.60;99.90
10468;DHT22;5281;48.878;9.394;2023-04-07T05:25:37;7.70;99.90
10468;DHT22;5281;48.878;9.394;2023-04-07T05:28:04;7.70;99.90
10468;DHT22;5281;48.878;9.394;2023-04-07T05:30:32;7.70;99.90
10468;DHT22;5281;48.878;9.394;2023-04-07T05:32:59;7.70;99.90
10468;DHT22;5281;48.878;9.394;2023-04-07T05:35:25;7.70;99.90
10468;DHT22;5281;48.878;9.394;2023-04-07T05:37:52;7.70;99.90
10468;DHT22;5281;48.878;9.394;2023-04-07T05:40:19;7.80;99.90
10468;DHT22;5281;48.878;9.394;2023-04-07T05:42:46;7.70;99.90
10468;DHT22;5281;48.878;9.394;2023-04-07T05:45:13;7.70;99.90
10468;DHT22;5281;48.878;9.394;2023-04-07T05:47:41;7.70;99.90
10468;DHT22;5281;48.878;9.394;2023-04-07T05:50:09;7.70;99.90
10468;DHT22;5281;48.878;9.394;2023-04-07T05:52:36;7.70;99.90
10468;DHT22;5281;48.878;9.394;2023-04-07T05:55:04;7.80;99.90
10468;DHT22;5281;48.878;9.394;2023-04-07T05:57:31;7.80;99.90
10468;DHT22;5281;48.878;9.394;2023-04-07T05:59:58;7.90;99.90
10468;DHT22;5281;48.878;9.394;2023-04-07T06:02:25;7.90;99.90
10468;DHT22;5281;48.878;9.394;2023-04-07T06:04:53;7.90;99.90
10468;DHT22;5281;48.878;9.394;2023-04-07T06:07:20;7.90;99.90
10468;DHT22;5281;48.878;9.394;2023-04-07T06:09:47;8.00;99.90
10468;DHT22;5281;48.878;9.394;2023-04-07T06:12:14;8.10;99.90
10468;DHT22;5281;48.878;9.394;2023-04-07T06:14:41;8.10;99.90
10468;DHT22;5281;48.878;9.394;2023-04-07T06:17:08;8.10;99.90
10468;DHT22;5281;48.878;9.394;2023-04-07T06:19:35;8.10;99.90
10468;DHT22;5281;48.878;9.394;2023-04-07T06:22:03;8.10;99.90
10468;DHT22;5281;48.878;9.394;2023-04-07T06:24:29;8.00;99.90
10468;DHT22;5281;48.878;9.394;2023-04-07T06:26:56;8.10;99.90
10468;DHT22;5281;48.878;9.394;2023-04-07T06:29:23;8.20;99.90
10468;DHT22;5281;48.878;9.394;2023-04-07T06:31:50;8.20;99.90
10468;DHT22;5281;48.878;9.394;2023-04-07T06:34:17;8.20;99.90
10468;DHT22;5281;48.878;9.394;2023-04-07T06:36:44;8.20;99.90
10468;DHT22;5281;48.878;9.394;2023-04-07T06:39:12;8.30;99.90
10468;DHT22;5281;48.878;9.394;2023-04-07T06:41:39;8.20;99.90
10468;DHT22;5281;48.878;9.394;2023-04-07T06:44:08;8.20;99.90
10468;DHT22;5281;48.878;9.394;2023-04-07T06:46:35;8.30;99.90
10468;DHT22;5281;48.878;9.394;2023-04-07T06:49:02;8.50;99.90
10468;DHT22;5281;48.878;9.394;2023-04-07T06:51:29;8.70;99.90
10468;DHT22;5281;48.878;9.394;2023-04-07T06:53:56;8.80;99.90
10468;DHT22;5281;48.878;9.394;2023-04-07T06:56:24;9.10;99.90
10468;DHT22;5281;48.878;9.394;2023-04-07T06:58:51;9.20;99.90
10468;DHT22;5281;48.878;9.394;2023-04-07T07:01:18;9.30;99.90
10468;DHT22;5281;48.878;9.394;2023-04-07T07:03:45;9.40;99.90
10468;DHT22;5281;48.878;9.394;2023-04-07T07:06:12;9.40;99.90
10468;DHT22;5281;48.878;9.394;2023-04-07T07:08:38;9.50;99.90
10468;DHT22;5281;48.878;9.394;2023-04-07T07:11:05;9.70;99.90
10468;DHT22;5281;48.878;9.394;2023-04-07T07:13:33;9.80;99.90
10468;DHT22;5281;48.878;9.394;2023-04-07T07:16:00;10.00;99.90
10468;DHT22;5281;48.878;9.394;2023-04-07T07:18:27;10.00;99.90
10468;DHT22;5281;48.878;9.394;2023-04-07T07:20:54;9.90;99.90
10468;DHT22;5281;48.878;9.394;2023-04-07T07:23:20;9.90;99.90
10468;DHT22;5281;48.878;9.394;2023-04-07T07:25:47;9.80;99.90
10468;DHT22;5281;48.878;9.394;2023-04-07T07:28:14;9.90;99.90
10468;DHT22;5281;48.878;9.394;2023-04-07T07:30:42;9.90;99.90
10468;DHT22;5281;48.878;9.394;2023-04-07T07:33:09;9.90;99.90
10468;DHT22;5281;48.878;9.394;2023-04-07T07:35:36;10.00;99.90
10468;DHT22;5281;48.878;9.394;2023-04-07T07:38:03;10.30;99.90
10468;DHT22;5281;48.878;9.394;2023-04-07T07:40:30;10.50;99.90
10468;DHT22;5281;48.878;9.394;2023-04-07T07:42:57;10.80;99.90
10468;DHT22;5281;48.878;9.394;2023-04-07T07:45:23;11.10;99.90
10468;DHT22;5281;48.878;9.394;2023-04-07T07:47:51;11.30;99.90
10468;DHT22;5281;48.878;9.394;2023-04-07T07:50:18;11.60;99.90
10468;DHT22;5281;48.878;9.394;2023-04-07T07:52:45;11.90;99.90
10468;DHT22;5281;48.878;9.394;2023-04-07T07:55:12;12.60;99.90
10468;DHT22;5281;48.878;9.394;2023-04-07T07:57:39;13.20;99.90
10468;DHT22;5281;48.878;9.394;2023-04-07T08:00:07;13.60;99.90
10468;DHT22;5281;48.878;9.394;2023-04-07T08:02:34;13.70;99.90
10468;DHT22;5281;48.878;9.394;2023-04-07T08:05:02;13.80;99.90
10468;DHT22;5281;48.878;9.394;2023-04-07T08:07:29;14.00;99.90
10468;DHT22;5281;48.878;9.394;2023-04-07T08:09:56;14.10;99.90
10468;DHT22;5281;48.878;9.394;2023-04-07T08:12:23;14.30;99.90
10468;DHT22;5281;48.878;9.394;2023-04-07T08:14:49;14.40;99.90
10468;DHT22;5281;48.878;9.394;2023-04-07T08:17:16;14.80;99.90
10468;DHT22;5281;48.878;9.394;2023-04-07T08:19:43;15.20;99.90
10468;DHT22;5281;48.878;9.394;2023-04-07T08:22:11;15.60;99.90
10468;DHT22;5281;48.878;9.394;2023-04-07T08:24:38;16.00;99.90
10468;DHT22;5281;48.878;9.394;2023-04-07T08:27:05;16.50;99.90
10468;DHT22;5281;48.878;9.394;2023-04-07T08:29:32;17.00;99.90
10468;DHT22;5281;48.878;9.394;2023-04-07T08:31:59;17.40;99.90
10468;DHT22;5281;48.878;9.394;2023-04-07T08:34:25;17.70;99.90
10468;DHT22;5281;48.878;9.394;2023-04-07T08:36:52;18.10;99.90
10468;DHT22;5281;48.878;9.394;2023-04-07T08:39:21;18.50;99.90
10468;DHT22;5281;48.878;9.394;2023-04-07T08:41:50;19.00;99.90
10468;DHT22;5281;48.878;9.394;2023-04-07T08:44:21;19.30;99.90
10468;DHT22;5281;48.878;9.394;2023-04-07T08:46:50;19.60;98.80
10468;DHT22;5281;48.878;9.394;2023-04-07T08:49:19;19.60;97.80
10468;DHT22;5281;48.878;9.394;2023-04-07T08:51:47;19.60;97.10
10468;DHT22;5281;48.878;9.394;2023-04-07T08:54:17;19.60;96.30
10468;DHT22;5281;48.878;9.394;2023-04-07T08:56:47;19.60;95.90
10468;DHT22;5281;48.878;9.394;2023-04-07T08:59:15;19.10;95.40
10468;DHT22;5281;48.878;9.394;2023-04-07T09:01:43;18.40;96.30
10468;DHT22;5281;48.878;9.394;2023-04-07T09:04:12;18.10;97.20
10468;DHT22;5281;48.878;9.394;2023-04-07T09:06:39;17.60;97.50
10468;DHT22;5281;48.878;9.394;2023-04-07T09:09:06;17.80;97.70
10468;DHT22;5281;48.878;9.394;2023-04-07T09:11:35;17.90;97.10
10468;DHT22;5281;48.878;9.394;2023-04-07T09:14:04;18.10;96.50
10468;DHT22;5281;48.878;9.394;2023-04-07T09:16:31;18.00;96.40
10468;DHT22;5281;48.878;9.394;2023-04-07T09:18:58;17.50;96.60
10468;DHT22;5281;48.878;9.394;2023-04-07T09:21:25;16.90;97.80
10468;DHT22;5281;48.878;9.394;2023-04-07T09:23:52;16.80;98.30
10468;DHT22;5281;48.878;9.394;2023-04-07T09:26:24;16.70;98.10
10468;DHT22;5281;48.878;9.394;2023-04-07T09:28:53;16.80;98.00
10468;DHT22;5281;48.878;9.394;2023-04-07T09:31:22;16.90;98.40
10468;DHT22;5281;48.878;9.394;2023-04-07T09:33:51;17.00;98.20
10468;DHT22;5281;48.878;9.394;2023-04-07T09:36:18;16.90;98.20
10468;DHT22;5281;48.878;9.394;2023-04-07T09:38:45;17.20;98.00
10468;DHT22;5281;48.878;9.394;2023-04-07T09:41:13;17.40;97.80
10468;DHT22;5281;48.878;9.394;2023-04-07T09:43:43;17.60;97.30
10468;DHT22;5281;48.878;9.394;2023-04-07T09:46:12;17.70;97.60
10468;DHT22;5281;48.878;9.394;2023-04-07T09:48:42;17.60;97.50
10468;DHT22;5281;48.878;9.394;2023-04-07T09:51:10;17.70;97.40
10468;DHT22;5281;48.878;9.394;2023-04-07T09:53:42;17.90;96.70
10468;DHT22;5281;48.878;9.394;2023-04-07T09:56:11;17.90;96.30
10468;DHT22;5281;48.878;9.394;2023-04-07T09:58:38;17.70;96.70
10468;DHT22;5281;48.878;9.394;2023-04-07T10:01:06;17.70;97.00
10468;DHT22;5281;48.878;9.394;2023-04-07T10:03:34;17.40;97.20
10468;DHT22;5281;48.878;9.394;2023-04-07T10:06:03;17.00;97.80
10468;DHT22;5281;48.878;9.394;2023-04-07T10:08:31;16.80;97.90
10468;DHT22;5281;48.878;9.394;2023-04-07T10:11:00;17.00;97.80
10468;DHT22;5281;48.878;9.394;2023-04-07T10:13:28;17.20;97.40
10468;DHT22;5281;48.878;9.394;2023-04-07T10:15:55;17.40;97.20
10468;DHT22;5281;48.878;9.394;2023-04-07T10:18:25;17.20;97.30
10468;DHT22;5281;48.878;9.394;2023-04-07T10:20:55;16.90;97.40
10468;DHT22;5281;48.878;9.394;2023-04-07T10:23:27;16.60;98.00
10468;DHT22;5281;48.878;9.394;2023-04-07T10:25:55;16.80;98.10
10468;DHT22;5281;48.878;9.394;2023-04-07T10:28:25;17.00;97.80
10468;DHT22;5281;48.878;9.394;2023-04-07T10:30:53;17.00;97.30
10468;DHT22;5281;48.878;9.394;2023-04-07T10:33:44;17.10;97.80
10468;DHT22;5281;48.878;9.394;2023-04-07T10:36:12;17.50;97.20
10468;DHT22;5281;48.878;9.394;2023-04-07T10:38:40;17.90;96.80
10468;DHT22;5281;48.878;9.394;2023-04-07T10:41:32;18.10;96.20
10468;DHT22;5281;48.878;9.394;2023-04-07T10:44:00;18.30;95.60
10468;DHT22;5281;48.878;9.394;2023-04-07T10:47:01;18.30;95.70
10468;DHT22;5281;48.878;9.394;2023-04-07T10:49:29;18.40;95.30
10468;DHT22;5281;48.878;9.394;2023-04-07T10:52:21;18.20;95.60
10468;DHT22;5281;48.878;9.394;2023-04-07T10:55:28;17.90;95.80
10468;DHT22;5281;48.878;9.394;2023-04-07T10:58:21;17.50;96.20
10468;DHT22;5281;48.878;9.394;2023-04-07T11:01:17;17.40;96.50
10468;DHT22;5281;48.878;9.394;2023-04-07T11:03:57;17.40;96.90
10468;DHT22;5281;48.878;9.394;2023-04-07T11:06:25;17.60;97.00
10468;DHT22;5281;48.878;9.394;2023-04-07T11:08:52;17.80;96.90
10468;DHT22;5281;48.878;9.394;2023-04-07T11:11:35;17.80;97.00
10468;DHT22;5281;48.878;9.394;2023-04-07T11:14:03;17.70;96.40
10468;DHT22;5281;48.878;9.394;2023-04-07T11:16:39;17.60;96.20
10468;DHT22;5281;48.878;9.394;2023-04-07T11:19:06;17.60;96.40
10468;DHT22;5281;48.878;9.394;2023-04-07T11:21:33;17.50;96.10
10468;DHT22;5281;48.878;9.394;2023-04-07T11:24:01;17.60;96.00
10468;DHT22;5281;48.878;9.394;2023-04-07T11:26:29;17.70;95.80
10468;DHT22;5281;48.878;9.394;2023-04-07T11:29:02;17.90;95.40
10468;DHT22;5281;48.878;9.394;2023-04-07T11:31:30;18.10;95.40
10468;DHT22;5281;48.878;9.394;2023-04-07T11:33:58;18.30;94.90
10468;DHT22;5281;48.878;9.394;2023-04-07T11:36:27;18.30;94.70
10468;DHT22;5281;48.878;9.394;2023-04-07T11:38:55;18.30;94.60
10468;DHT22;5281;48.878;9.394;2023-04-07T11:41:23;18.00;94.60
10468;DHT22;5281;48.878;9.394;2023-04-07T11:44:04;18.00;94.60
10468;DHT22;5281;48.878;9.394;2023-04-07T11:46:31;18.20;94.50
10468;DHT22;5281;48.878;9.394;2023-04-07T11:49:08;18.50;93.90
10468;DHT22;5281;48.878;9.394;2023-04-07T11:51:36;18.80;94.10
10468;DHT22;5281;48.878;9.394;2023-04-07T11:54:03;19.00;93.40
10468;DHT22;5281;48.878;9.394;2023-04-07T11:56:41;19.10;92.60
10468;DHT22;5281;48.878;9.394;2023-04-07T11:59:18;18.90;92.60
10468;DHT22;5281;48.878;9.394;2023-04-07T12:01:47;18.90;93.00
10468;DHT22;5281;48.878;9.394;2023-04-07T12:04:14;18.90;93.20
10468;DHT22;5281;48.878;9.394;2023-04-07T12:06:42;18.70;93.40
10468;DHT22;5281;48.878;9.394;2023-04-07T12:09:26;18.50;92.90
10468;DHT22;5281;48.878;9.394;2023-04-07T12:11:54;18.30;92.60
10468;DHT22;5281;48.878;9.394;2023-04-07T12:14:23;18.30;92.50
10468;DHT22;5281;48.878;9.394;2023-04-07T12:16:50;18.30;92.60
10468;DHT22;5281;48.878;9.394;2023-04-07T12:19:17;18.40;92.60
10468;DHT22;5281;48.878;9.394;2023-04-07T12:21:44;18.60;92.40
10468;DHT22;5281;48.878;9.394;2023-04-07T12:24:11;18.60;92.60
10468;DHT22;5281;48.878;9.394;2023-04-07T12:26:38;18.70;92.10
10468;DHT22;5281;48.878;9.394;2023-04-07T12:29:05;18.80;92.00
10468;DHT22;5281;48.878;9.394;2023-04-07T12:31:33;18.90;91.90
10468;DHT22;5281;48.878;9.394;2023-04-07T12:34:01;18.50;92.20
10468;DHT22;5281;48.878;9.394;2023-04-07T12:36:27;18.00;92.70
10468;DHT22;5281;48.878;9.394;2023-04-07T12:38:55;17.40;93.60
10468;DHT22;5281;48.878;9.394;2023-04-07T12:41:24;17.30;94.20
10468;DHT22;5281;48.878;9.394;2023-04-07T12:43:51;17.30;94.10
10468;DHT22;5281;48.878;9.394;2023-04-07T12:46:18;17.00;94.60
10468;DHT22;5281;48.878;9.394;2023-04-07T12:48:47;17.00;94.90
10468;DHT22;5281;48.878;9.394;2023-04-07T12:51:14;17.10;94.90
10468;DHT22;5281;48.878;9.394;2023-04-07T12:53:41;17.20;95.50
10468;DHT22;5281;48.878;9.394;2023-04-07T12:56:07;17.20;96.80
10468;DHT22;5281;48.878;9.394;2023-04-07T12:58:34;17.10;97.60
10468;DHT22;5281;48.878;9.394;2023-04-07T13:01:02;16.90;97.80
10468;DHT22;5281;48.878;9.394;2023-04-07T13:03:28;16.90;99.10
10468;DHT22;5281;48.878;9.394;2023-04-07T13:05:57;16.50;99.90
10468;DHT22;5281;48.878;9.394;2023-04-07T13:08:26;16.10;99.90
10468;DHT22;5281;48.878;9.394;2023-04-07T13:10:53;16.10;99.90
10468;DHT22;5281;48.878;9.394;2023-04-07T13:13:20;16.10;99.90
10468;DHT22;5281;48.878;9.394;2023-04-07T13:15:47;15.70;99.90
10468;DHT22;5281;48.878;9.394;2023-04-07T13:18:14;15.40;99.90
10468;DHT22;5281;48.878;9.394;2023-04-07T13:20:41;15.30;99.90
10468;DHT22;5281;48.878;9.394;2023-04-07T13:23:09;15.50;99.90
10468;DHT22;5281;48.878;9.394;2023-04-07T13:25:36;15.60;99.90
10468;DHT22;5281;48.878;9.394;2023-04-07T13:28:03;15.70;99.90
10468;DHT22;5281;48.878;9.394;2023-04-07T13:30:31;15.80;99.90
10468;DHT22;5281;48.878;9.394;2023-04-07T13:32:57;16.00;99.90
10468;DHT22;5281;48.878;9.394;2023-04-07T13:35:24;16.30;99.90
10468;DHT22;5281;48.878;9.394;2023-04-07T13:37:52;16.60;99.90
10468;DHT22;5281;48.878;9.394;2023-04-07T13:40:20;16.90;99.90
10468;DHT22;5281;48.878;9.394;2023-04-07T13:42:47;17.10;99.90
10468;DHT22;5281;48.878;9.394;2023-04-07T13:45:14;17.40;99.90
10468;DHT22;5281;48.878;9.394;2023-04-07T13:47:41;17.40;99.90
10468;DHT22;5281;48.878;9.394;2023-04-07T13:50:08;17.50;99.90
10468;DHT22;5281;48.878;9.394;2023-04-07T13:52:35;17.60;99.90
10468;DHT22;5281;48.878;9.394;2023-04-07T13:55:02;17.70;99.90
10468;DHT22;5281;48.878;9.394;2023-04-07T13:57:31;18.00;99.90
10468;DHT22;5281;48.878;9.394;2023-04-07T13:59:58;18.20;99.90
10468;DHT22;5281;48.878;9.394;2023-04-07T14:02:25;18.30;99.60
10468;DHT22;5281;48.878;9.394;2023-04-07T14:04:54;18.40;99.20
10468;DHT22;5281;48.878;9.394;2023-04-07T14:07:21;18.40;99.90
10468;DHT22;5281;48.878;9.394;2023-04-07T14:09:48;18.40;99.60
10468;DHT22;5281;48.878;9.394;2023-04-07T14:12:15;18.40;99.40
10468;DHT22;5281;48.878;9.394;2023-04-07T14:14:43;18.30;98.70
10468;DHT22;5281;48.878;9.394;2023-04-07T14:17:10;18.30;99.00
10468;DHT22;5281;48.878;9.394;2023-04-07T14:19:37;18.20;98.90
10468;DHT22;5281;48.878;9.394;2023-04-07T14:22:04;18.20;98.30
10468;DHT22;5281;48.878;9.394;2023-04-07T14:24:31;18.20;98.40
10468;DHT22;5281;48.878;9.394;2023-04-07T14:26:58;18.30;98.50
10468;DHT22;5281;48.878;9.394;2023-04-07T14:29:26;18.20;96.00
10468;DHT22;5281;48.878;9.394;2023-04-07T14:31:54;17.80;97.80
10468;DHT22;5281;48.878;9.394;2023-04-07T14:34:21;17.80;97.40
10468;DHT22;5281;48.878;9.394;2023-04-07T14:36:55;17.80;97.70
10468;DHT22;5281;48.878;9.394;2023-04-07T14:39:23;17.80;97.40
10468;DHT22;5281;48.878;9.394;2023-04-07T14:41:51;17.60;95.80
10468;DHT22;5281;48.878;9.394;2023-04-07T14:44:18;17.30;96.40
10468;DHT22;5281;48.878;9.394;2023-04-07T14:46:44;17.30;97.30
10468;DHT22;5281;48.878;9.394;2023-04-07T14:49:13;17.20;96.90
10468;DHT22;5281;48.878;9.394;2023-04-07T14:51:40;17.20;97.30
10468;DHT22;5281;48.878;9.394;2023-04-07T14:54:07;17.30;96.90
10468;DHT22;5281;48.878;9.394;2023-04-07T14:56:34;17.30;96.20
10468;DHT22;5281;48.878;9.394;2023-04-07T14:59:01;17.30;96.40
10468;DHT22;5281;48.878;9.394;2023-04-07T15:01:28;17.20;96.00
10468;DHT22;5281;48.878;9.394;2023-04-07T15:03:55;17.20;96.70
10468;DHT22;5281;48.878;9.394;2023-04-07T15:06:24;17.10;96.20
10468;DHT22;5281;48.878;9.394;2023-04-07T15:08:51;16.60;98.60
10468;DHT22;5281;48.878;9.394;2023-04-07T15:11:18;16.10;99.70
10468;DHT22;5281;48.878;9.394;2023-04-07T15:13:46;15.50;99.90
10468;DHT22;5281;48.878;9.394;2023-04-07T15:16:14;15.10;99.90
10468;DHT22;5281;48.878;9.394;2023-04-07T15:18:42;14.90;99.90
10468;DHT22;5281;48.878;9.394;2023-04-07T15:21:11;14.70;99.90
10468;DHT22;5281;48.878;9.394;2023-04-07T15:23:39;14.50;99.90
10468;DHT22;5281;48.878;9.394;2023-04-07T15:26:08;14.40;99.90
10468;DHT22;5281;48.878;9.394;2023-04-07T15:28:35;14.30;99.90
10468;DHT22;5281;48.878;9.394;2023-04-07T15:31:02;14.40;99.90
10468;DHT22;5281;48.878;9.394;2023-04-07T15:33:33;14.30;99.90
10468;DHT22;5281;48.878;9.394;2023-04-07T15:36:00;14.30;99.90
10468;DHT22;5281;48.878;9.394;2023-04-07T15:38:27;14.20;99.90
10468;DHT22;5281;48.878;9.394;2023-04-07T15:40:55;14.30;99.90
10468;DHT22;5281;48.878;9.394;2023-04-07T15:43:22;14.40;99.90
10468;DHT22;5281;48.878;9.394;2023-04-07T15:45:49;14.60;99.90
10468;DHT22;5281;48.878;9.394;2023-04-07T15:48:16;14.80;99.90
10468;DHT22;5281;48.878;9.394;2023-04-07T15:50:43;14.90;99.90
10468;DHT22;5281;48.878;9.394;2023-04-07T15:53:10;15.00;99.90
10468;DHT22;5281;48.878;9.394;2023-04-07T15:55:37;15.10;99.90
10468;DHT22;5281;48.878;9.394;2023-04-07T15:58:06;15.20;99.90
10468;DHT22;5281;48.878;9.394;2023-04-07T16:00:35;15.20;99.90
10468;DHT22;5281;48.878;9.394;2023-04-07T16:03:03;15.30;99.90